• Join FlightAware (Why Join?)
  • Login
  • US Flag 
07:49AM EDT


 

Airport Tracker/Info


-or-


 

Live Flight TrackerFlight Track Log ✈ N9930S ✈ 24-May-2014 ✈ KTYR - KJWY

Flight Track Log - Related Links

Times and Time Zones

All times are in EDT time to prevent confusion due to time zone crossing. See the N9930S flight status page for this flight to view local times or setup timezone preferences in your user account.

Time Position Orientation Groundspeed Altitude Reporting Facility
EDT Latitude Longitude Course Direction KTS MPH feet Rate Location/Type
01:59PM 32.3397 -95.5139 261° West 102 117 6,000  Level Fort Worth Center
02:00PM 32.3172 -95.5500 234° Southwest 109 125 4,200 -540 Descending Fort Worth Center
02:01PM 32.3100 -95.5808 255° West 101 116 4,900 600 Climbing Fort Worth Center
02:02PM 32.2957 -95.6711 256° West  Level FlightAware Approximate
02:02PM 32.3064 -95.6142 263° West 101 116 5,500  Level Fort Worth Center
02:03PM 32.2863 -95.7174 256° West  Level FlightAware Approximate
02:03PM 32.3008 -95.6503 260° West 101 116 6,000  Level Fort Worth Center
02:04PM 32.2908 -95.6931 255° West 128 147 5,900 -60 Descending Fort Worth Center
02:05PM 32.2808 -95.7389 256° West 141 162 5,900  Level Fort Worth Center
02:06PM 32.2700 -95.7931 257° West 141 162 5,900  Level Fort Worth Center
02:07PM 32.2603 -95.8397 256° West 143 165 5,900  Level Fort Worth Center
02:08PM 32.2511 -95.8856 257° West 143 165 5,900  Level Fort Worth Center
02:09PM 32.2425 -95.9350 258° West 143 165 5,900  Level Fort Worth Center
02:10PM 32.2344 -95.9797 258° West 141 162 5,900  Level Fort Worth Center
02:11PM 32.2258 -96.0256 257° West 141 162 5,900  Level Fort Worth Center
02:12PM 32.2175 -96.0667 257° West 142 163 5,900  Level Fort Worth Center
02:13PM 32.2064 -96.1211 256° West 141 162 5,900  Level Fort Worth Center
02:15PM 32.1969 -96.1667 256° West 142 163 5,900  Level Fort Worth Center
02:16PM 32.1886 -96.2106 257° West 138 159 5,900  Level Fort Worth Center
02:17PM 32.2028 -96.2558 290° West 151 174 6,000  Climbing Fort Worth Center
02:18PM 32.2117 -96.3031 283° West 149 171 5,900 -60 Descending Fort Worth Center
02:19PM 32.2222 -96.3503 285° West 148 170 5,900  Level Fort Worth Center
02:20PM 32.2400 -96.4017 292° West 150 173 6,000  Climbing Fort Worth Center
02:21PM 32.2625 -96.4469 300° West 150 173 6,000  Level Fort Worth Center
02:22PM 32.2783 -96.4925 292° West 150 173 6,000 -60 Level Fort Worth Center
02:23PM 32.2978 -96.5372 297° West 152 175 5,900 -120 Descending Fort Worth Center
02:24PM 32.3197 -96.5858 298° West 153 176 5,800 -360 Descending Fort Worth Center
02:25PM 32.3403 -96.6328 297° West 161 185 5,200 -600 Descending Fort Worth Center
02:26PM 32.3639 -96.6839 299° West 172 198 4,600 -720 Descending Fort Worth Center
02:27PM 32.3878 -96.7403 297° West 174 200 3,800 -840 Descending Fort Worth Center
02:28PM 32.4089 -96.7906 296° West 174 200 2,900 -480 Descending Fort Worth Center
02:29PM 32.4272 -96.8292 299° West 166 191 2,900  Level Fort Worth Center